createdAt,value
2022-08-31T00:00:41.621Z,20.18
2022-08-31T00:03:10.328Z,19.83
2022-08-31T00:05:40.493Z,19.19
2022-08-31T00:08:07.591Z,19.72
2022-08-31T00:10:37.079Z,19.83
2022-08-31T00:13:06.966Z,19.82
2022-08-31T00:15:35.153Z,19.83
2022-08-31T00:18:02.401Z,19.79
2022-08-31T00:20:33.238Z,18.98
2022-08-31T00:23:07.041Z,19.24
2022-08-31T00:25:35.078Z,19.19
2022-08-31T00:28:02.692Z,18.71
2022-08-31T00:30:30.914Z,17.89
2022-08-31T00:32:58.221Z,17.79
2022-08-31T00:35:28.026Z,17.56
2022-08-31T00:37:58.158Z,17.98
2022-08-31T00:40:26.438Z,18.24
2022-08-31T00:42:53.111Z,18.66
2022-08-31T00:45:19.913Z,19.11
2022-08-31T00:47:46.692Z,19.35
2022-08-31T00:50:16.668Z,18.87
2022-08-31T00:52:50.746Z,17.97
2022-08-31T00:55:27.610Z,17.66
2022-08-31T00:57:57.968Z,17.47
2022-08-31T01:00:28.482Z,17.68
2022-08-31T01:02:57.260Z,17.64
2022-08-31T01:05:24.211Z,17.82
2022-08-31T01:07:52.857Z,17.52
2022-08-31T01:10:23.720Z,17.30
2022-08-31T01:12:55.397Z,17.13
2022-08-31T01:15:22.892Z,17.18
2022-08-31T01:17:53.350Z,17.17
2022-08-31T01:20:25.978Z,17.44
2022-08-31T01:23:04.841Z,17.34
2022-08-31T01:25:33.443Z,17.39
2022-08-31T01:28:05.902Z,17.55
2022-08-31T01:30:34.136Z,17.77
2022-08-31T01:33:01.702Z,17.73
2022-08-31T01:35:29.179Z,18.05
2022-08-31T01:37:56.931Z,17.88
2022-08-31T01:40:45.675Z,18.00
2022-08-31T01:43:12.732Z,17.68
2022-08-31T01:45:39.373Z,17.84
2022-08-31T01:48:06.173Z,18.28
2022-08-31T01:50:32.828Z,18.85
2022-08-31T01:52:59.632Z,19.39
2022-08-31T01:55:26.300Z,19.73
2022-08-31T01:57:53.501Z,20.06
2022-08-31T02:00:20.391Z,20.25
2022-08-31T02:02:47.248Z,20.39
2022-08-31T02:05:13.961Z,20.46
2022-08-31T02:07:41.854Z,19.95
2022-08-31T02:10:09.462Z,19.69
2022-08-31T02:12:36.128Z,19.51
2022-08-31T02:15:03.543Z,19.42
2022-08-31T02:17:30.266Z,19.62
2022-08-31T02:19:56.876Z,19.25
2022-08-31T02:22:23.507Z,19.52
2022-08-31T02:24:50.185Z,18.65
2022-08-31T02:27:16.830Z,18.28
2022-08-31T02:29:43.598Z,18.32
2022-08-31T02:32:15.698Z,18.14
2022-08-31T02:34:48.457Z,18.27
2022-08-31T02:37:17.494Z,17.71
2022-08-31T02:39:44.362Z,17.42
2022-08-31T02:42:11.203Z,17.44
2022-08-31T02:44:37.842Z,17.48
2022-08-31T02:47:04.690Z,17.84
2022-08-31T02:49:34.696Z,17.59
2022-08-31T02:52:01.332Z,17.68
2022-08-31T02:54:28.177Z,17.53
2022-08-31T02:56:54.943Z,18.09
2022-08-31T02:59:21.555Z,17.81
2022-08-31T03:01:48.514Z,17.65
2022-08-31T03:04:15.368Z,17.65
2022-08-31T03:06:42.205Z,17.74
2022-08-31T03:09:08.872Z,17.75
2022-08-31T03:11:35.565Z,17.57
2022-08-31T03:14:02.249Z,17.40
2022-08-31T03:16:28.895Z,17.58
2022-08-31T03:18:55.656Z,17.36
2022-08-31T03:21:22.328Z,17.96
2022-08-31T03:23:49.022Z,17.87
2022-08-31T03:26:15.635Z,17.57
2022-08-31T03:28:42.662Z,17.55
2022-08-31T03:31:11.246Z,17.45
2022-08-31T03:33:38.361Z,17.62
2022-08-31T03:36:05.102Z,17.46
2022-08-31T03:38:32.242Z,17.51
2022-08-31T03:40:59.263Z,18.08
2022-08-31T03:43:26.047Z,18.39
2022-08-31T03:45:53.915Z,18.59
2022-08-31T03:48:20.685Z,18.52
2022-08-31T03:50:47.457Z,18.21
2022-08-31T03:53:15.016Z,18.48
2022-08-31T03:55:43.421Z,18.95
2022-08-31T03:58:11.676Z,18.98
2022-08-31T04:00:39.166Z,19.14
2022-08-31T04:03:06.049Z,17.98
2022-08-31T04:05:36.100Z,18.15
2022-08-31T04:08:03.152Z,18.08
2022-08-31T04:10:29.761Z,18.83
2022-08-31T04:12:56.420Z,18.25
2022-08-31T04:15:23.482Z,17.89
2022-08-31T04:17:52.439Z,18.20
2022-08-31T04:20:29.500Z,18.03
2022-08-31T04:22:57.008Z,18.13
2022-08-31T04:25:23.635Z,18.86
2022-08-31T04:27:50.299Z,19.15
2022-08-31T04:30:18.203Z,19.09
2022-08-31T04:32:44.880Z,18.95
2022-08-31T04:35:11.498Z,19.17
2022-08-31T04:37:38.137Z,19.06
2022-08-31T04:40:10.411Z,19.03
2022-08-31T04:42:37.043Z,18.39
2022-08-31T04:45:03.882Z,18.27
2022-08-31T04:47:31.256Z,19.08
2022-08-31T04:49:57.970Z,18.99
2022-08-31T04:52:28.299Z,19.27
2022-08-31T04:54:55.785Z,19.93
2022-08-31T04:57:22.414Z,19.88
2022-08-31T04:59:49.091Z,20.17
2022-08-31T05:02:15.824Z,20.12
2022-08-31T05:04:42.457Z,19.56
2022-08-31T05:07:09.104Z,20.01
2022-08-31T05:09:35.951Z,20.12
2022-08-31T05:12:02.862Z,20.33
2022-08-31T05:14:29.762Z,19.66
2022-08-31T05:16:56.389Z,18.87
2022-08-31T05:19:23.059Z,18.86
2022-08-31T05:21:49.719Z,18.94
2022-08-31T05:24:20.048Z,19.62
2022-08-31T05:26:50.266Z,20.14
2022-08-31T05:29:25.535Z,20.15
2022-08-31T05:31:55.721Z,19.85
2022-08-31T05:34:22.648Z,20.35
2022-08-31T05:36:52.798Z,20.48
2022-08-31T05:39:19.554Z,20.31
2022-08-31T05:41:47.041Z,20.46
2022-08-31T05:44:15.335Z,20.30
2022-08-31T05:46:42.851Z,20.72
2022-08-31T05:49:10.963Z,19.75
2022-08-31T05:51:39.322Z,19.60
2022-08-31T05:54:07.126Z,19.12
2022-08-31T05:56:34.259Z,19.24
2022-08-31T05:59:00.923Z,19.62
2022-08-31T06:01:32.659Z,19.84
2022-08-31T06:04:00.691Z,20.00
2022-08-31T06:06:27.620Z,20.67
2022-08-31T06:08:54.750Z,21.05
2022-08-31T06:11:24.986Z,21.32
2022-08-31T06:13:54.381Z,21.39
2022-08-31T06:16:22.589Z,21.46
2022-08-31T06:18:50.331Z,21.42
2022-08-31T06:21:28.869Z,21.45
2022-08-31T06:23:55.958Z,21.56
2022-08-31T06:26:24.542Z,21.75
2022-08-31T06:28:53.453Z,21.46
2022-08-31T06:31:28.665Z,20.66
2022-08-31T06:33:56.171Z,20.61
2022-08-31T06:36:26.470Z,21.28
2022-08-31T06:38:57.281Z,21.21
2022-08-31T06:41:34.441Z,20.95
2022-08-31T06:44:06.630Z,20.87
2022-08-31T06:46:35.644Z,20.45
2022-08-31T06:49:02.887Z,20.12
2022-08-31T06:51:29.694Z,19.78
2022-08-31T06:54:04.401Z,19.79
2022-08-31T06:56:43.538Z,19.77
2022-08-31T06:59:10.352Z,20.73
2022-08-31T07:01:37.072Z,20.72
2022-08-31T07:04:07.479Z,20.31
2022-08-31T07:06:40.391Z,21.25
2022-08-31T07:09:09.845Z,21.66
2022-08-31T07:11:44.264Z,22.16
2022-08-31T07:14:14.914Z,22.51
2022-08-31T07:16:44.062Z,22.73
2022-08-31T07:19:12.641Z,23.05
2022-08-31T07:21:42.888Z,23.68
2022-08-31T07:24:11.057Z,24.37
2022-08-31T07:26:41.827Z,24.59
2022-08-31T07:29:10.322Z,25.02
2022-08-31T07:31:38.788Z,24.47
2022-08-31T07:34:05.979Z,24.61
2022-08-31T07:36:35.113Z,25.10
2022-08-31T07:39:01.756Z,25.03
2022-08-31T07:41:29.130Z,25.80
2022-08-31T07:43:55.776Z,25.51
2022-08-31T07:46:23.595Z,25.11
2022-08-31T07:48:50.992Z,25.04
2022-08-31T07:51:17.643Z,23.86
2022-08-31T07:53:44.376Z,23.49
2022-08-31T07:56:12.030Z,24.40
2022-08-31T07:58:38.725Z,24.23
2022-08-31T08:01:05.681Z,24.68
2022-08-31T08:03:32.333Z,24.40
2022-08-31T08:06:00.027Z,23.78
2022-08-31T08:08:28.184Z,22.79
2022-08-31T08:10:58.485Z,23.72
2022-08-31T08:13:25.159Z,24.11
2022-08-31T08:15:52.310Z,23.95
2022-08-31T08:18:19.635Z,24.13
2022-08-31T08:20:46.285Z,24.69
2022-08-31T08:23:18.060Z,24.62
2022-08-31T08:25:52.589Z,25.87
2022-08-31T08:31:11.347Z,25.50
2022-08-31T08:33:38.146Z,26.04
2022-08-31T08:36:06.928Z,26.53
2022-08-31T08:38:35.626Z,26.32
2022-08-31T08:41:07.450Z,26.72
2022-08-31T08:43:40.226Z,26.57
2022-08-31T08:46:33.433Z,26.55
2022-08-31T08:49:14.563Z,26.95
2022-08-31T08:51:43.515Z,26.86
2022-08-31T08:54:15.126Z,25.87
2022-08-31T08:56:43.673Z,25.85
2022-08-31T08:59:12.845Z,25.51
2022-08-31T09:01:44.636Z,25.71
2022-08-31T09:04:26.462Z,26.23
2022-08-31T09:07:17.973Z,26.20
2022-08-31T09:10:03.756Z,26.16
2022-08-31T09:12:33.313Z,26.14
2022-08-31T09:15:31.969Z,25.54
2022-08-31T09:18:17.605Z,25.23
2022-08-31T09:21:01.309Z,24.95
2022-08-31T09:23:32.873Z,25.00
2022-08-31T09:25:59.569Z,24.91
2022-08-31T09:28:44.998Z,24.60
2022-08-31T09:31:38.943Z,24.27
2022-08-31T09:34:28.358Z,24.27
2022-08-31T09:37:15.780Z,23.80
2022-08-31T09:39:45.556Z,23.49
2022-08-31T09:42:18.716Z,23.77
2022-08-31T09:44:50.034Z,23.89
2022-08-31T09:47:44.994Z,23.68
2022-08-31T09:50:25.118Z,24.00
2022-08-31T09:52:51.872Z,23.93
2022-08-31T09:55:22.861Z,24.25
2022-08-31T09:57:55.934Z,24.61
2022-08-31T10:00:44.619Z,24.78
2022-08-31T10:03:21.677Z,24.70
2022-08-31T10:05:51.982Z,24.45
2022-08-31T10:08:50.118Z,23.65
2022-08-31T10:11:20.544Z,23.58
2022-08-31T10:13:56.715Z,23.63
2022-08-31T10:16:37.994Z,23.93
2022-08-31T10:19:09.209Z,24.22
2022-08-31T10:21:51.239Z,23.93
2022-08-31T10:24:32.715Z,23.78
2022-08-31T10:27:26.448Z,23.25
2022-08-31T10:30:06.211Z,22.33
2022-08-31T10:32:48.921Z,22.89
2022-08-31T10:35:41.172Z,22.62
2022-08-31T10:38:22.572Z,22.68
2022-08-31T10:41:17.054Z,22.86
2022-08-31T10:44:09.804Z,22.46
2022-08-31T10:46:36.553Z,22.35
2022-08-31T10:49:05.177Z,22.10
2022-08-31T10:51:49.050Z,22.34
2022-08-31T10:54:33.160Z,22.04
2022-08-31T10:57:22.472Z,22.37
2022-08-31T11:00:01.725Z,22.73
2022-08-31T11:02:46.608Z,22.63
2022-08-31T11:05:39.448Z,22.78
2022-08-31T11:08:27.786Z,22.62
2022-08-31T11:10:57.066Z,22.43
2022-08-31T11:13:32.941Z,23.11
2022-08-31T11:16:16.183Z,23.15
2022-08-31T11:19:20.270Z,23.69
2022-08-31T11:22:34.478Z,23.41
2022-08-31T11:25:29.007Z,23.38
2022-08-31T11:28:05.154Z,23.01
2022-08-31T11:30:40.009Z,22.76
2022-08-31T11:33:18.005Z,23.09
2022-08-31T11:35:50.792Z,22.51
2022-08-31T11:38:48.392Z,22.68
2022-08-31T11:41:44.495Z,22.75
2022-08-31T11:44:36.820Z,23.20
2022-08-31T11:47:08.425Z,23.18
2022-08-31T11:49:37.797Z,23.16
2022-08-31T11:52:11.100Z,23.48
2022-08-31T11:54:37.727Z,23.65
2022-08-31T11:57:06.324Z,23.00
2022-08-31T11:59:39.618Z,22.94
2022-08-31T12:02:21.491Z,23.39
2022-08-31T12:04:58.400Z,23.30
2022-08-31T12:07:47.046Z,23.47
2022-08-31T12:10:40.010Z,23.25
2022-08-31T12:13:15.594Z,23.48
2022-08-31T12:16:08.402Z,23.46
2022-08-31T12:18:41.075Z,23.13
2022-08-31T12:21:39.055Z,23.41
2022-08-31T12:24:18.758Z,23.62
2022-08-31T12:26:45.722Z,23.69
2022-08-31T12:29:34.404Z,23.27
2022-08-31T12:32:13.041Z,23.65
2022-08-31T12:35:03.189Z,23.63
2022-08-31T12:37:33.088Z,24.08
2022-08-31T12:40:17.387Z,24.71
2022-08-31T12:43:00.198Z,24.20
2022-08-31T12:45:46.640Z,23.91
2022-08-31T12:48:31.944Z,23.68
2022-08-31T12:50:58.541Z,23.69
2022-08-31T12:54:06.338Z,24.11
2022-08-31T12:57:03.801Z,23.85
2022-08-31T12:59:59.834Z,24.17
2022-08-31T13:02:29.130Z,24.20
2022-08-31T13:04:57.424Z,24.07
2022-08-31T13:07:31.446Z,23.89
2022-08-31T13:10:15.946Z,23.81
2022-08-31T13:12:59.097Z,23.84
2022-08-31T13:15:46.003Z,23.96
2022-08-31T13:18:23.771Z,23.71
2022-08-31T13:20:56.036Z,23.56
2022-08-31T13:23:31.236Z,23.58
2022-08-31T13:26:03.880Z,23.53
2022-08-31T13:28:32.697Z,23.75
2022-08-31T13:31:06.387Z,23.89
2022-08-31T13:33:40.603Z,24.05
2022-08-31T13:36:16.742Z,24.22
2022-08-31T13:38:51.399Z,24.11
2022-08-31T13:41:39.530Z,24.13
2022-08-31T13:44:11.338Z,24.36
2022-08-31T13:46:50.826Z,24.06
2022-08-31T13:49:28.451Z,24.43
2022-08-31T13:51:55.541Z,24.15
2022-08-31T13:54:32.349Z,24.02
2022-08-31T13:57:12.067Z,24.15
2022-08-31T13:59:40.566Z,24.27
2022-08-31T14:02:13.332Z,24.13
2022-08-31T14:04:42.695Z,24.11
2022-08-31T14:07:19.753Z,24.08
2022-08-31T14:09:49.991Z,24.11
2022-08-31T14:12:29.814Z,24.22
2022-08-31T14:14:56.929Z,24.00
2022-08-31T14:17:25.487Z,24.32
2022-08-31T14:19:53.190Z,24.19
2022-08-31T14:22:30.354Z,24.14
2022-08-31T14:24:57.342Z,24.25
2022-08-31T14:27:24.270Z,24.17
2022-08-31T14:29:51.887Z,24.44
2022-08-31T14:32:20.062Z,24.45
2022-08-31T14:34:46.693Z,24.32
2022-08-31T14:37:14.225Z,24.44
2022-08-31T14:39:50.352Z,24.07
2022-08-31T14:42:22.893Z,24.25
2022-08-31T14:44:54.211Z,24.05
2022-08-31T14:47:21.237Z,24.08
2022-08-31T14:49:47.852Z,24.04
2022-08-31T14:52:15.294Z,24.22
2022-08-31T14:54:42.920Z,24.19
2022-08-31T14:57:19.527Z,23.99
2022-08-31T14:59:46.183Z,23.84
2022-08-31T15:02:14.610Z,23.49
2022-08-31T15:04:45.650Z,23.79
2022-08-31T15:07:14.659Z,23.71
2022-08-31T15:09:41.817Z,23.94
2022-08-31T15:12:10.221Z,23.95
2022-08-31T15:14:41.400Z,23.85
2022-08-31T15:17:10.119Z,24.18
2022-08-31T15:19:46.403Z,24.16
2022-08-31T15:22:13.142Z,24.07
2022-08-31T15:24:40.844Z,24.65
2022-08-31T15:27:07.469Z,24.43
2022-08-31T15:29:34.081Z,24.77
2022-08-31T15:32:00.769Z,23.48
2022-08-31T15:34:32.727Z,23.57
2022-08-31T15:37:02.754Z,24.06
2022-08-31T15:39:34.185Z,23.66
2022-08-31T15:42:05.599Z,23.20
2022-08-31T15:44:32.331Z,23.21
2022-08-31T15:47:03.044Z,23.80
2022-08-31T15:49:31.099Z,23.72
2022-08-31T15:51:57.949Z,23.80
2022-08-31T15:54:26.871Z,23.52
2022-08-31T15:56:56.594Z,23.36
2022-08-31T15:59:23.268Z,23.45
2022-08-31T16:01:51.341Z,23.15
2022-08-31T16:04:18.988Z,23.09
2022-08-31T16:06:46.154Z,23.33
2022-08-31T16:09:12.785Z,23.04
2022-08-31T16:11:39.512Z,22.94
2022-08-31T16:14:06.637Z,22.90
2022-08-31T16:16:36.984Z,22.50
2022-08-31T16:19:06.841Z,22.56
2022-08-31T16:21:36.621Z,22.48
2022-08-31T16:24:08.820Z,22.45
2022-08-31T16:26:38.504Z,22.57
2022-08-31T16:29:09.026Z,22.83
2022-08-31T16:31:35.792Z,23.59
2022-08-31T16:34:02.518Z,23.25
2022-08-31T16:36:29.605Z,23.11
2022-08-31T16:38:57.424Z,22.63
2022-08-31T16:41:25.135Z,22.71
2022-08-31T16:44:16.012Z,23.04
2022-08-31T16:46:41.448Z,23.58
2022-08-31T16:49:09.908Z,24.00
2022-08-31T16:51:38.920Z,24.07
2022-08-31T16:54:07.485Z,24.18
2022-08-31T16:56:37.700Z,22.92
2022-08-31T16:59:04.848Z,22.29
2022-08-31T17:01:35.033Z,22.07
2022-08-31T17:04:06.858Z,21.92
2022-08-31T17:06:38.991Z,21.98
2022-08-31T17:09:24.755Z,22.36
2022-08-31T17:11:57.629Z,22.42
2022-08-31T17:14:31.068Z,21.77
2022-08-31T17:16:58.256Z,21.87
2022-08-31T17:19:24.914Z,21.54
2022-08-31T17:21:51.801Z,21.49
2022-08-31T17:24:27.743Z,21.41
2022-08-31T17:26:56.761Z,21.44
2022-08-31T17:29:23.414Z,21.44
2022-08-31T17:31:51.060Z,21.44
2022-08-31T17:34:22.608Z,21.36
2022-08-31T17:36:51.098Z,21.21
2022-08-31T17:39:20.382Z,21.22
2022-08-31T17:41:48.095Z,21.23
2022-08-31T17:44:16.883Z,21.17
2022-08-31T17:46:45.191Z,21.25
2022-08-31T17:49:11.900Z,21.44
2022-08-31T17:51:38.757Z,21.02
2022-08-31T17:54:08.640Z,21.08
2022-08-31T17:56:39.304Z,20.83
2022-08-31T17:59:21.414Z,20.95
2022-08-31T18:01:55.664Z,20.64
2022-08-31T18:04:25.137Z,20.64
2022-08-31T18:06:53.377Z,20.95
2022-08-31T18:09:25.964Z,20.40
2022-08-31T18:11:54.280Z,20.54
2022-08-31T18:14:24.690Z,20.28
2022-08-31T18:16:54.502Z,20.15
2022-08-31T18:19:28.002Z,20.37
2022-08-31T18:21:58.551Z,20.02
2022-08-31T18:24:26.623Z,20.01
2022-08-31T18:26:53.485Z,19.93
2022-08-31T18:29:24.538Z,19.78
2022-08-31T18:31:52.894Z,19.74
2022-08-31T18:34:22.725Z,19.85
2022-08-31T18:36:54.202Z,19.67
2022-08-31T18:39:41.066Z,19.62
2022-08-31T18:42:10.133Z,19.63
2022-08-31T18:44:37.894Z,19.45
2022-08-31T18:47:08.256Z,19.40
2022-08-31T18:49:39.938Z,19.24
2022-08-31T18:52:09.491Z,19.37
2022-08-31T18:54:36.191Z,19.39
2022-08-31T18:57:02.877Z,19.18
2022-08-31T18:59:29.515Z,18.99
2022-08-31T19:01:56.318Z,19.10
2022-08-31T19:04:23.120Z,19.13
2022-08-31T19:06:49.847Z,18.99
2022-08-31T19:09:16.824Z,19.02
2022-08-31T19:11:43.629Z,18.96
2022-08-31T19:14:10.269Z,18.80
2022-08-31T19:16:36.903Z,18.79
2022-08-31T19:19:03.593Z,18.70
2022-08-31T19:21:33.379Z,18.74
2022-08-31T19:24:02.965Z,18.62
2022-08-31T19:26:41.729Z,18.52
2022-08-31T19:29:11.366Z,18.51
2022-08-31T19:31:39.913Z,18.47
2022-08-31T19:34:07.727Z,18.47
2022-08-31T19:36:36.918Z,18.52
2022-08-31T19:39:05.507Z,18.58
2022-08-31T19:41:32.853Z,18.52
2022-08-31T19:44:08.536Z,18.37
2022-08-31T19:46:38.341Z,18.47
2022-08-31T19:49:06.469Z,18.39
2022-08-31T19:51:33.256Z,18.31
2022-08-31T19:53:59.946Z,18.26
2022-08-31T19:56:27.423Z,18.18
2022-08-31T19:58:54.491Z,18.15
2022-08-31T20:01:24.383Z,18.34
2022-08-31T20:03:57.006Z,18.11
2022-08-31T20:06:24.469Z,18.27
2022-08-31T20:08:52.624Z,18.21
2022-08-31T20:11:23.419Z,18.21
2022-08-31T20:13:52.718Z,18.16
2022-08-31T20:16:21.636Z,18.28
2022-08-31T20:18:52.079Z,18.23
2022-08-31T20:21:23.599Z,18.13
2022-08-31T20:23:55.509Z,18.07
2022-08-31T20:26:36.186Z,17.93
2022-08-31T20:29:07.197Z,17.93
2022-08-31T20:31:41.048Z,17.96
2022-08-31T20:34:09.105Z,17.93
2022-08-31T20:36:37.392Z,17.94
2022-08-31T20:39:08.192Z,17.93
2022-08-31T20:41:38.120Z,18.01
2022-08-31T20:44:08.665Z,17.86
2022-08-31T20:46:38.657Z,17.78
2022-08-31T20:49:05.418Z,17.85
2022-08-31T20:51:32.025Z,17.82
2022-08-31T20:53:58.635Z,17.96
2022-08-31T20:56:25.425Z,17.73
2022-08-31T20:58:52.066Z,17.56
2022-08-31T21:01:18.704Z,17.57
2022-08-31T21:03:45.290Z,17.69
2022-08-31T21:06:11.938Z,17.54
2022-08-31T21:08:40.366Z,17.50
2022-08-31T21:11:13.497Z,17.50
2022-08-31T21:13:40.098Z,17.53
2022-08-31T21:16:06.896Z,17.47
2022-08-31T21:18:33.497Z,17.59
2022-08-31T21:21:05.097Z,17.45
2022-08-31T21:23:32.016Z,17.44
2022-08-31T21:25:58.883Z,17.46
2022-08-31T21:28:26.325Z,17.45
2022-08-31T21:31:03.330Z,17.55
2022-08-31T21:33:35.733Z,17.66
2022-08-31T21:36:11.784Z,17.42
2022-08-31T21:38:39.010Z,17.46
2022-08-31T21:41:08.822Z,17.35
2022-08-31T21:43:36.556Z,17.27
2022-08-31T21:46:12.780Z,17.36
2022-08-31T21:48:42.893Z,17.38
2022-08-31T21:51:14.769Z,17.26
2022-08-31T21:53:44.451Z,17.18
2022-08-31T21:56:11.792Z,17.20
2022-08-31T21:58:38.626Z,17.16
2022-08-31T22:01:06.736Z,17.09
2022-08-31T22:03:35.214Z,17.20
2022-08-31T22:06:06.788Z,17.13
2022-08-31T22:08:34.824Z,17.17
2022-08-31T22:11:04.533Z,17.11
2022-08-31T22:13:31.296Z,17.17
2022-08-31T22:16:00.285Z,17.23
2022-08-31T22:18:59.817Z,17.37
2022-08-31T22:21:18.992Z,17.23
2022-08-31T22:23:46.942Z,17.34
2022-08-31T22:26:15.849Z,17.44
2022-08-31T22:28:42.606Z,17.23
2022-08-31T22:31:10.496Z,17.20
2022-08-31T22:33:38.064Z,17.28
2022-08-31T22:36:19.531Z,17.19
2022-08-31T22:39:08.076Z,17.08
2022-08-31T22:41:35.629Z,17.49
2022-08-31T22:44:02.363Z,17.51
2022-08-31T22:46:29.081Z,18.09
2022-08-31T22:48:58.068Z,17.70
2022-08-31T22:51:25.292Z,17.55
2022-08-31T22:53:51.932Z,17.71
2022-08-31T22:56:25.021Z,17.82
2022-08-31T22:58:59.470Z,17.89
2022-08-31T23:01:31.651Z,17.90
2022-08-31T23:04:01.364Z,17.69
2022-08-31T23:06:29.060Z,17.18
2022-08-31T23:08:58.370Z,17.02
2022-08-31T23:11:28.867Z,17.07
2022-08-31T23:13:57.780Z,16.92
2022-08-31T23:16:34.318Z,17.41
2022-08-31T23:19:07.674Z,17.19
2022-08-31T23:21:34.697Z,17.54
2022-08-31T23:24:04.435Z,18.39
2022-08-31T23:26:31.170Z,18.45
2022-08-31T23:29:00.337Z,18.43
2022-08-31T23:31:28.189Z,18.98
2022-08-31T23:33:54.933Z,18.83
2022-08-31T23:36:24.462Z,18.75
2022-08-31T23:38:53.040Z,19.23
2022-08-31T23:41:19.684Z,19.04
2022-08-31T23:43:53.661Z,18.93
2022-08-31T23:46:22.171Z,18.62
2022-08-31T23:48:49.554Z,18.70
2022-08-31T23:51:20.632Z,19.36
2022-08-31T23:53:48.626Z,18.68
2022-08-31T23:56:15.403Z,18.40
2022-08-31T23:58:42.178Z,18.09
